sensor_id;sensor_type;location;lat;lon;timestamp;P1;durP1;ratioP1;P2;durP2;ratioP2
3141;SDS011;1581;51.568;6.998;2024-01-11T00:00:53;34.50;;;17.70;;
3141;SDS011;1581;51.568;6.998;2024-01-11T00:03:24;34.10;;;16.83;;
3141;SDS011;1581;51.568;6.998;2024-01-11T00:05:53;42.07;;;18.50;;
3141;SDS011;1581;51.568;6.998;2024-01-11T00:08:20;42.03;;;19.57;;
3141;SDS011;1581;51.568;6.998;2024-01-11T00:10:48;37.53;;;18.43;;
3141;SDS011;1581;51.568;6.998;2024-01-11T00:13:15;37.93;;;18.67;;
3141;SDS011;1581;51.568;6.998;2024-01-11T00:15:43;39.63;;;19.40;;
3141;SDS011;1581;51.568;6.998;2024-01-11T00:18:10;47.10;;;20.10;;
3141;SDS011;1581;51.568;6.998;2024-01-11T00:20:38;41.13;;;18.67;;
3141;SDS011;1581;51.568;6.998;2024-01-11T00:23:06;43.43;;;20.03;;
3141;SDS011;1581;51.568;6.998;2024-01-11T00:25:34;42.03;;;18.70;;
3141;SDS011;1581;51.568;6.998;2024-01-11T00:28:01;43.37;;;16.80;;
3141;SDS011;1581;51.568;6.998;2024-01-11T00:30:29;35.97;;;18.57;;
3141;SDS011;1581;51.568;6.998;2024-01-11T00:32:57;44.50;;;18.80;;
3141;SDS011;1581;51.568;6.998;2024-01-11T00:35:24;36.27;;;18.00;;
3141;SDS011;1581;51.568;6.998;2024-01-11T00:37:52;41.10;;;18.50;;
3141;SDS011;1581;51.568;6.998;2024-01-11T00:40:21;36.03;;;17.90;;
3141;SDS011;1581;51.568;6.998;2024-01-11T00:42:49;41.73;;;19.03;;
3141;SDS011;1581;51.568;6.998;2024-01-11T00:45:17;43.17;;;20.00;;
3141;SDS011;1581;51.568;6.998;2024-01-11T00:47:45;44.27;;;19.70;;
3141;SDS011;1581;51.568;6.998;2024-01-11T00:50:14;38.17;;;17.93;;
3141;SDS011;1581;51.568;6.998;2024-01-11T00:52:41;39.90;;;18.80;;
3141;SDS011;1581;51.568;6.998;2024-01-11T00:55:09;42.70;;;19.00;;
3141;SDS011;1581;51.568;6.998;2024-01-11T00:57:37;41.83;;;18.60;;
3141;SDS011;1581;51.568;6.998;2024-01-11T01:00:05;38.87;;;18.10;;
3141;SDS011;1581;51.568;6.998;2024-01-11T01:02:38;42.33;;;19.20;;
3141;SDS011;1581;51.568;6.998;2024-01-11T01:05:05;37.00;;;17.97;;
3141;SDS011;1581;51.568;6.998;2024-01-11T01:07:34;39.23;;;19.27;;
3141;SDS011;1581;51.568;6.998;2024-01-11T01:10:01;38.87;;;18.97;;
3141;SDS011;1581;51.568;6.998;2024-01-11T01:12:29;41.17;;;19.00;;
3141;SDS011;1581;51.568;6.998;2024-01-11T01:14:58;39.27;;;19.20;;
3141;SDS011;1581;51.568;6.998;2024-01-11T01:17:25;37.63;;;18.20;;
3141;SDS011;1581;51.568;6.998;2024-01-11T01:19:53;36.03;;;18.03;;
3141;SDS011;1581;51.568;6.998;2024-01-11T01:22:20;40.50;;;17.97;;
3141;SDS011;1581;51.568;6.998;2024-01-11T01:24:48;43.17;;;19.07;;
3141;SDS011;1581;51.568;6.998;2024-01-11T01:27:16;37.53;;;17.63;;
3141;SDS011;1581;51.568;6.998;2024-01-11T01:29:43;40.60;;;19.13;;
3141;SDS011;1581;51.568;6.998;2024-01-11T01:32:12;39.83;;;19.80;;
3141;SDS011;1581;51.568;6.998;2024-01-11T01:34:40;39.80;;;19.00;;
3141;SDS011;1581;51.568;6.998;2024-01-11T01:37:08;37.77;;;18.03;;
3141;SDS011;1581;51.568;6.998;2024-01-11T01:39:37;38.37;;;19.10;;
3141;SDS011;1581;51.568;6.998;2024-01-11T01:42:05;41.43;;;19.97;;
3141;SDS011;1581;51.568;6.998;2024-01-11T01:44:33;37.63;;;17.93;;
3141;SDS011;1581;51.568;6.998;2024-01-11T01:47:00;43.77;;;19.80;;
3141;SDS011;1581;51.568;6.998;2024-01-11T01:49:32;44.43;;;19.50;;
3141;SDS011;1581;51.568;6.998;2024-01-11T01:51:59;40.43;;;18.07;;
3141;SDS011;1581;51.568;6.998;2024-01-11T01:54:28;44.40;;;19.07;;
3141;SDS011;1581;51.568;6.998;2024-01-11T01:56:57;40.77;;;18.60;;
3141;SDS011;1581;51.568;6.998;2024-01-11T01:59:25;40.77;;;18.70;;
3141;SDS011;1581;51.568;6.998;2024-01-11T02:01:54;46.17;;;18.93;;
3141;SDS011;1581;51.568;6.998;2024-01-11T02:04:21;38.40;;;19.40;;
3141;SDS011;1581;51.568;6.998;2024-01-11T02:06:50;37.93;;;18.03;;
3141;SDS011;1581;51.568;6.998;2024-01-11T02:09:19;44.33;;;19.43;;
3141;SDS011;1581;51.568;6.998;2024-01-11T02:11:47;41.70;;;18.57;;
3141;SDS011;1581;51.568;6.998;2024-01-11T02:14:14;38.50;;;18.90;;
3141;SDS011;1581;51.568;6.998;2024-01-11T02:16:43;39.47;;;18.90;;
3141;SDS011;1581;51.568;6.998;2024-01-11T02:19:11;38.37;;;17.60;;
3141;SDS011;1581;51.568;6.998;2024-01-11T02:21:40;36.63;;;17.37;;
3141;SDS011;1581;51.568;6.998;2024-01-11T02:24:10;40.47;;;16.83;;
3141;SDS011;1581;51.568;6.998;2024-01-11T02:26:44;44.93;;;16.93;;
3141;SDS011;1581;51.568;6.998;2024-01-11T02:29:25;41.93;;;18.87;;
3141;SDS011;1581;51.568;6.998;2024-01-11T02:31:53;41.37;;;18.23;;
3141;SDS011;1581;51.568;6.998;2024-01-11T02:34:22;36.43;;;17.90;;
3141;SDS011;1581;51.568;6.998;2024-01-11T02:36:50;38.83;;;18.10;;
3141;SDS011;1581;51.568;6.998;2024-01-11T02:39:19;40.30;;;18.70;;
3141;SDS011;1581;51.568;6.998;2024-01-11T02:41:49;33.57;;;17.53;;
3141;SDS011;1581;51.568;6.998;2024-01-11T02:44:18;44.50;;;19.90;;
3141;SDS011;1581;51.568;6.998;2024-01-11T02:46:46;40.57;;;18.60;;
3141;SDS011;1581;51.568;6.998;2024-01-11T02:49:13;44.50;;;19.20;;
3141;SDS011;1581;51.568;6.998;2024-01-11T02:51:41;45.30;;;18.70;;
3141;SDS011;1581;51.568;6.998;2024-01-11T02:54:09;37.53;;;18.97;;
3141;SDS011;1581;51.568;6.998;2024-01-11T02:56:37;41.90;;;19.00;;
3141;SDS011;1581;51.568;6.998;2024-01-11T02:59:05;40.40;;;18.00;;
3141;SDS011;1581;51.568;6.998;2024-01-11T03:01:32;40.43;;;19.43;;
3141;SDS011;1581;51.568;6.998;2024-01-11T03:04:00;41.47;;;19.20;;
3141;SDS011;1581;51.568;6.998;2024-01-11T03:06:27;43.40;;;19.23;;
3141;SDS011;1581;51.568;6.998;2024-01-11T03:08:55;44.10;;;18.83;;
3141;SDS011;1581;51.568;6.998;2024-01-11T03:11:42;38.87;;;18.70;;
3141;SDS011;1581;51.568;6.998;2024-01-11T03:14:09;43.27;;;19.17;;
3141;SDS011;1581;51.568;6.998;2024-01-11T03:16:37;41.70;;;20.03;;
3141;SDS011;1581;51.568;6.998;2024-01-11T03:19:05;40.47;;;18.00;;
3141;SDS011;1581;51.568;6.998;2024-01-11T03:21:32;43.90;;;18.23;;
3141;SDS011;1581;51.568;6.998;2024-01-11T03:24:00;43.17;;;19.70;;
3141;SDS011;1581;51.568;6.998;2024-01-11T03:26:27;43.13;;;18.90;;
3141;SDS011;1581;51.568;6.998;2024-01-11T03:28:56;38.80;;;18.53;;
3141;SDS011;1581;51.568;6.998;2024-01-11T03:31:23;39.27;;;17.70;;
3141;SDS011;1581;51.568;6.998;2024-01-11T03:33:51;42.17;;;18.70;;
3141;SDS011;1581;51.568;6.998;2024-01-11T03:36:22;40.20;;;18.47;;
3141;SDS011;1581;51.568;6.998;2024-01-11T03:38:50;46.23;;;19.87;;
3141;SDS011;1581;51.568;6.998;2024-01-11T03:41:18;35.57;;;17.80;;
3141;SDS011;1581;51.568;6.998;2024-01-11T03:43:45;47.60;;;18.70;;
3141;SDS011;1581;51.568;6.998;2024-01-11T03:46:14;35.73;;;17.37;;
3141;SDS011;1581;51.568;6.998;2024-01-11T03:48:41;46.63;;;18.87;;
3141;SDS011;1581;51.568;6.998;2024-01-11T03:51:09;51.03;;;19.27;;
3141;SDS011;1581;51.568;6.998;2024-01-11T03:53:36;36.40;;;18.93;;
3141;SDS011;1581;51.568;6.998;2024-01-11T03:56:04;45.03;;;18.50;;
3141;SDS011;1581;51.568;6.998;2024-01-11T03:58:32;46.40;;;18.27;;
3141;SDS011;1581;51.568;6.998;2024-01-11T04:00:59;39.47;;;18.37;;
3141;SDS011;1581;51.568;6.998;2024-01-11T04:03:28;43.13;;;19.70;;
3141;SDS011;1581;51.568;6.998;2024-01-11T04:05:56;35.03;;;18.20;;
3141;SDS011;1581;51.568;6.998;2024-01-11T04:08:23;42.70;;;16.87;;
3141;SDS011;1581;51.568;6.998;2024-01-11T04:10:50;42.60;;;17.57;;
3141;SDS011;1581;51.568;6.998;2024-01-11T04:13:18;36.37;;;18.07;;
3141;SDS011;1581;51.568;6.998;2024-01-11T04:15:45;42.10;;;17.33;;
3141;SDS011;1581;51.568;6.998;2024-01-11T04:18:13;39.37;;;18.00;;
3141;SDS011;1581;51.568;6.998;2024-01-11T04:20:42;35.97;;;16.67;;
3141;SDS011;1581;51.568;6.998;2024-01-11T04:23:09;42.63;;;19.53;;
3141;SDS011;1581;51.568;6.998;2024-01-11T04:25:37;37.40;;;17.37;;
3141;SDS011;1581;51.568;6.998;2024-01-11T04:28:04;39.53;;;17.80;;
3141;SDS011;1581;51.568;6.998;2024-01-11T04:30:32;35.63;;;18.00;;
3141;SDS011;1581;51.568;6.998;2024-01-11T04:32:59;41.70;;;19.67;;
3141;SDS011;1581;51.568;6.998;2024-01-11T04:35:27;38.80;;;19.50;;
3141;SDS011;1581;51.568;6.998;2024-01-11T04:37:55;41.60;;;19.10;;
3141;SDS011;1581;51.568;6.998;2024-01-11T04:40:23;39.57;;;18.20;;
3141;SDS011;1581;51.568;6.998;2024-01-11T04:42:50;38.90;;;17.20;;
3141;SDS011;1581;51.568;6.998;2024-01-11T04:45:18;39.70;;;18.20;;
3141;SDS011;1581;51.568;6.998;2024-01-11T04:47:45;42.30;;;18.70;;
3141;SDS011;1581;51.568;6.998;2024-01-11T04:50:13;36.30;;;17.10;;
3141;SDS011;1581;51.568;6.998;2024-01-11T04:52:40;39.73;;;18.97;;
3141;SDS011;1581;51.568;6.998;2024-01-11T04:55:09;39.53;;;18.27;;
3141;SDS011;1581;51.568;6.998;2024-01-11T04:57:37;43.63;;;18.17;;
3141;SDS011;1581;51.568;6.998;2024-01-11T05:00:05;37.63;;;17.67;;
3141;SDS011;1581;51.568;6.998;2024-01-11T05:02:33;32.53;;;18.10;;
3141;SDS011;1581;51.568;6.998;2024-01-11T05:05:01;37.70;;;17.20;;
3141;SDS011;1581;51.568;6.998;2024-01-11T05:07:28;41.03;;;18.57;;
3141;SDS011;1581;51.568;6.998;2024-01-11T05:09:56;40.30;;;17.37;;
3141;SDS011;1581;51.568;6.998;2024-01-11T05:12:25;35.77;;;18.50;;
3141;SDS011;1581;51.568;6.998;2024-01-11T05:14:52;35.60;;;17.37;;
3141;SDS011;1581;51.568;6.998;2024-01-11T05:17:20;43.53;;;18.90;;
3141;SDS011;1581;51.568;6.998;2024-01-11T05:19:47;37.97;;;18.20;;
3141;SDS011;1581;51.568;6.998;2024-01-11T05:22:15;40.67;;;18.57;;
3141;SDS011;1581;51.568;6.998;2024-01-11T05:24:42;42.37;;;17.63;;
3141;SDS011;1581;51.568;6.998;2024-01-11T05:27:10;42.83;;;17.73;;
3141;SDS011;1581;51.568;6.998;2024-01-11T05:29:39;42.43;;;17.17;;
3141;SDS011;1581;51.568;6.998;2024-01-11T05:32:06;35.00;;;16.50;;
3141;SDS011;1581;51.568;6.998;2024-01-11T05:34:33;32.13;;;16.57;;
3141;SDS011;1581;51.568;6.998;2024-01-11T05:37:01;33.70;;;17.60;;
3141;SDS011;1581;51.568;6.998;2024-01-11T05:39:28;40.93;;;17.50;;
3141;SDS011;1581;51.568;6.998;2024-01-11T05:41:56;36.77;;;16.90;;
3141;SDS011;1581;51.568;6.998;2024-01-11T05:44:23;41.63;;;17.80;;
3141;SDS011;1581;51.568;6.998;2024-01-11T05:46:52;40.17;;;18.00;;
3141;SDS011;1581;51.568;6.998;2024-01-11T05:49:20;32.70;;;16.67;;
3141;SDS011;1581;51.568;6.998;2024-01-11T05:51:47;41.40;;;17.07;;
3141;SDS011;1581;51.568;6.998;2024-01-11T05:54:14;39.30;;;17.80;;
3141;SDS011;1581;51.568;6.998;2024-01-11T05:56:42;33.47;;;16.53;;
3141;SDS011;1581;51.568;6.998;2024-01-11T05:59:09;34.60;;;16.03;;
3141;SDS011;1581;51.568;6.998;2024-01-11T06:01:40;32.77;;;15.63;;
3141;SDS011;1581;51.568;6.998;2024-01-11T06:04:09;37.23;;;16.90;;
3141;SDS011;1581;51.568;6.998;2024-01-11T06:06:37;35.87;;;17.53;;
3141;SDS011;1581;51.568;6.998;2024-01-11T06:09:04;33.63;;;16.30;;
3141;SDS011;1581;51.568;6.998;2024-01-11T06:14:07;34.03;;;16.63;;
3141;SDS011;1581;51.568;6.998;2024-01-11T06:16:35;36.10;;;16.87;;
3141;SDS011;1581;51.568;6.998;2024-01-11T06:19:03;37.40;;;16.30;;
3141;SDS011;1581;51.568;6.998;2024-01-11T06:21:33;33.80;;;17.20;;
3141;SDS011;1581;51.568;6.998;2024-01-11T06:24:01;38.63;;;17.97;;
3141;SDS011;1581;51.568;6.998;2024-01-11T06:26:29;40.83;;;18.77;;
3141;SDS011;1581;51.568;6.998;2024-01-11T06:28:57;41.07;;;18.00;;
3141;SDS011;1581;51.568;6.998;2024-01-11T06:31:24;40.10;;;16.90;;
3141;SDS011;1581;51.568;6.998;2024-01-11T06:33:52;49.33;;;20.77;;
3141;SDS011;1581;51.568;6.998;2024-01-11T06:36:19;48.60;;;21.50;;
3141;SDS011;1581;51.568;6.998;2024-01-11T06:38:49;54.47;;;22.10;;
3141;SDS011;1581;51.568;6.998;2024-01-11T06:41:17;47.97;;;21.30;;
3141;SDS011;1581;51.568;6.998;2024-01-11T06:43:44;42.07;;;19.70;;
3141;SDS011;1581;51.568;6.998;2024-01-11T06:46:11;46.63;;;22.60;;
3141;SDS011;1581;51.568;6.998;2024-01-11T06:48:39;43.80;;;19.13;;
3141;SDS011;1581;51.568;6.998;2024-01-11T06:54:09;40.00;;;19.23;;
3141;SDS011;1581;51.568;6.998;2024-01-11T06:56:37;45.67;;;19.93;;
3141;SDS011;1581;51.568;6.998;2024-01-11T06:59:04;42.70;;;20.30;;
3141;SDS011;1581;51.568;6.998;2024-01-11T07:01:32;46.33;;;20.67;;
3141;SDS011;1581;51.568;6.998;2024-01-11T07:03:59;45.80;;;19.97;;
3141;SDS011;1581;51.568;6.998;2024-01-11T07:06:27;41.60;;;17.83;;
3141;SDS011;1581;51.568;6.998;2024-01-11T07:08:54;42.97;;;18.93;;
3141;SDS011;1581;51.568;6.998;2024-01-11T07:11:23;43.20;;;17.73;;
3141;SDS011;1581;51.568;6.998;2024-01-11T07:13:51;39.90;;;17.93;;
3141;SDS011;1581;51.568;6.998;2024-01-11T07:16:19;34.63;;;18.70;;
3141;SDS011;1581;51.568;6.998;2024-01-11T07:18:46;38.40;;;19.07;;
3141;SDS011;1581;51.568;6.998;2024-01-11T07:21:19;40.03;;;17.80;;
3141;SDS011;1581;51.568;6.998;2024-01-11T07:23:54;42.27;;;18.10;;
3141;SDS011;1581;51.568;6.998;2024-01-11T07:26:24;37.70;;;18.00;;
3141;SDS011;1581;51.568;6.998;2024-01-11T07:28:52;39.30;;;18.00;;
3141;SDS011;1581;51.568;6.998;2024-01-11T07:31:21;42.00;;;18.30;;
3141;SDS011;1581;51.568;6.998;2024-01-11T07:33:48;39.37;;;17.10;;
3141;SDS011;1581;51.568;6.998;2024-01-11T07:36:16;39.13;;;18.80;;
3141;SDS011;1581;51.568;6.998;2024-01-11T07:38:43;36.97;;;17.60;;
3141;SDS011;1581;51.568;6.998;2024-01-11T07:41:11;35.37;;;17.33;;
3141;SDS011;1581;51.568;6.998;2024-01-11T07:43:40;37.67;;;18.70;;
3141;SDS011;1581;51.568;6.998;2024-01-11T07:46:08;39.30;;;18.37;;
3141;SDS011;1581;51.568;6.998;2024-01-11T07:48:36;34.23;;;16.70;;
3141;SDS011;1581;51.568;6.998;2024-01-11T07:51:03;47.50;;;19.53;;
3141;SDS011;1581;51.568;6.998;2024-01-11T07:53:31;36.63;;;18.00;;
3141;SDS011;1581;51.568;6.998;2024-01-11T07:55:58;41.00;;;18.00;;
3141;SDS011;1581;51.568;6.998;2024-01-11T07:58:26;45.20;;;18.67;;
3141;SDS011;1581;51.568;6.998;2024-01-11T08:00:55;43.60;;;18.03;;
3141;SDS011;1581;51.568;6.998;2024-01-11T08:03:22;37.10;;;17.37;;
3141;SDS011;1581;51.568;6.998;2024-01-11T08:05:50;39.57;;;18.40;;
3141;SDS011;1581;51.568;6.998;2024-01-11T08:08:17;36.60;;;18.03;;
3141;SDS011;1581;51.568;6.998;2024-01-11T08:10:45;37.33;;;15.70;;
3141;SDS011;1581;51.568;6.998;2024-01-11T08:13:12;37.80;;;17.80;;
3141;SDS011;1581;51.568;6.998;2024-01-11T08:15:39;40.33;;;18.37;;
3141;SDS011;1581;51.568;6.998;2024-01-11T08:18:08;37.90;;;18.17;;
3141;SDS011;1581;51.568;6.998;2024-01-11T08:20:36;37.33;;;17.70;;
3141;SDS011;1581;51.568;6.998;2024-01-11T08:23:04;41.20;;;17.50;;
3141;SDS011;1581;51.568;6.998;2024-01-11T08:25:31;34.10;;;17.50;;
3141;SDS011;1581;51.568;6.998;2024-01-11T08:27:59;36.20;;;16.10;;
3141;SDS011;1581;51.568;6.998;2024-01-11T08:30:28;33.57;;;17.47;;
3141;SDS011;1581;51.568;6.998;2024-01-11T08:32:55;40.33;;;18.27;;
3141;SDS011;1581;51.568;6.998;2024-01-11T08:35:24;33.67;;;17.53;;
3141;SDS011;1581;51.568;6.998;2024-01-11T08:37:52;35.03;;;17.60;;
3141;SDS011;1581;51.568;6.998;2024-01-11T08:40:20;39.73;;;17.70;;
3141;SDS011;1581;51.568;6.998;2024-01-11T08:42:51;35.57;;;16.60;;
3141;SDS011;1581;51.568;6.998;2024-01-11T08:45:18;42.03;;;17.10;;
3141;SDS011;1581;51.568;6.998;2024-01-11T08:47:47;42.47;;;17.20;;
3141;SDS011;1581;51.568;6.998;2024-01-11T08:50:15;41.70;;;17.83;;
3141;SDS011;1581;51.568;6.998;2024-01-11T08:52:44;39.90;;;18.00;;
3141;SDS011;1581;51.568;6.998;2024-01-11T08:55:12;37.50;;;16.70;;
3141;SDS011;1581;51.568;6.998;2024-01-11T08:57:39;34.40;;;16.73;;
3141;SDS011;1581;51.568;6.998;2024-01-11T09:00:07;47.60;;;18.00;;
3141;SDS011;1581;51.568;6.998;2024-01-11T09:02:35;40.10;;;18.50;;
3141;SDS011;1581;51.568;6.998;2024-01-11T09:05:03;38.03;;;18.07;;
3141;SDS011;1581;51.568;6.998;2024-01-11T09:07:32;33.43;;;16.23;;
3141;SDS011;1581;51.568;6.998;2024-01-11T09:10:01;41.00;;;18.00;;
3141;SDS011;1581;51.568;6.998;2024-01-11T09:12:29;35.07;;;16.60;;
3141;SDS011;1581;51.568;6.998;2024-01-11T09:14:56;35.27;;;17.77;;
3141;SDS011;1581;51.568;6.998;2024-01-11T09:17:24;33.57;;;17.27;;
3141;SDS011;1581;51.568;6.998;2024-01-11T09:19:51;42.30;;;19.30;;
3141;SDS011;1581;51.568;6.998;2024-01-11T09:22:19;38.17;;;16.90;;
3141;SDS011;1581;51.568;6.998;2024-01-11T09:24:46;34.47;;;16.80;;
3141;SDS011;1581;51.568;6.998;2024-01-11T09:27:15;37.60;;;16.70;;
3141;SDS011;1581;51.568;6.998;2024-01-11T09:29:43;39.13;;;18.00;;
3141;SDS011;1581;51.568;6.998;2024-01-11T09:32:11;39.03;;;17.80;;
3141;SDS011;1581;51.568;6.998;2024-01-11T09:34:38;32.87;;;16.97;;
3141;SDS011;1581;51.568;6.998;2024-01-11T09:37:06;37.53;;;17.33;;
3141;SDS011;1581;51.568;6.998;2024-01-11T09:39:33;35.53;;;17.27;;
3141;SDS011;1581;51.568;6.998;2024-01-11T09:42:03;41.40;;;18.67;;
3141;SDS011;1581;51.568;6.998;2024-01-11T09:44:36;38.17;;;19.07;;
3141;SDS011;1581;51.568;6.998;2024-01-11T09:47:04;50.47;;;20.10;;
3141;SDS011;1581;51.568;6.998;2024-01-11T09:49:34;35.23;;;18.53;;
3141;SDS011;1581;51.568;6.998;2024-01-11T09:52:04;41.07;;;18.83;;
3141;SDS011;1581;51.568;6.998;2024-01-11T09:54:34;34.77;;;18.07;;
3141;SDS011;1581;51.568;6.998;2024-01-11T09:57:03;39.63;;;18.63;;
3141;SDS011;1581;51.568;6.998;2024-01-11T09:59:33;32.30;;;16.67;;
3141;SDS011;1581;51.568;6.998;2024-01-11T10:02:02;40.27;;;17.43;;
3141;SDS011;1581;51.568;6.998;2024-01-11T10:04:33;40.70;;;17.50;;
3141;SDS011;1581;51.568;6.998;2024-01-11T10:07:02;40.73;;;18.37;;
3141;SDS011;1581;51.568;6.998;2024-01-11T10:09:32;33.40;;;18.17;;
3141;SDS011;1581;51.568;6.998;2024-01-11T10:12:00;33.10;;;17.03;;
3141;SDS011;1581;51.568;6.998;2024-01-11T10:14:28;37.60;;;18.20;;
3141;SDS011;1581;51.568;6.998;2024-01-11T10:16:58;37.87;;;17.50;;
3141;SDS011;1581;51.568;6.998;2024-01-11T10:19:25;34.27;;;17.20;;
3141;SDS011;1581;51.568;6.998;2024-01-11T10:21:53;39.03;;;18.37;;
3141;SDS011;1581;51.568;6.998;2024-01-11T10:24:20;35.50;;;17.47;;
3141;SDS011;1581;51.568;6.998;2024-01-11T10:26:51;39.03;;;16.97;;
3141;SDS011;1581;51.568;6.998;2024-01-11T10:29:21;33.43;;;16.47;;
3141;SDS011;1581;51.568;6.998;2024-01-11T10:31:49;37.33;;;17.57;;
3141;SDS011;1581;51.568;6.998;2024-01-11T10:34:18;31.17;;;16.10;;
3141;SDS011;1581;51.568;6.998;2024-01-11T10:36:45;35.73;;;16.60;;
3141;SDS011;1581;51.568;6.998;2024-01-11T10:39:13;38.10;;;17.87;;
3141;SDS011;1581;51.568;6.998;2024-01-11T10:41:45;29.53;;;14.30;;
3141;SDS011;1581;51.568;6.998;2024-01-11T10:44:18;38.60;;;17.30;;
3141;SDS011;1581;51.568;6.998;2024-01-11T10:46:47;43.67;;;16.73;;
3141;SDS011;1581;51.568;6.998;2024-01-11T10:49:18;39.00;;;17.20;;
3141;SDS011;1581;51.568;6.998;2024-01-11T10:51:49;34.57;;;16.37;;
3141;SDS011;1581;51.568;6.998;2024-01-11T10:54:24;38.53;;;17.10;;
3141;SDS011;1581;51.568;6.998;2024-01-11T10:56:52;33.90;;;17.70;;
3141;SDS011;1581;51.568;6.998;2024-01-11T10:59:21;39.40;;;16.30;;
3141;SDS011;1581;51.568;6.998;2024-01-11T11:01:51;34.70;;;16.47;;
3141;SDS011;1581;51.568;6.998;2024-01-11T11:04:22;35.87;;;16.80;;
3141;SDS011;1581;51.568;6.998;2024-01-11T11:06:51;35.90;;;16.73;;
3141;SDS011;1581;51.568;6.998;2024-01-11T11:09:23;39.67;;;16.97;;
3141;SDS011;1581;51.568;6.998;2024-01-11T11:11:53;33.47;;;15.13;;
3141;SDS011;1581;51.568;6.998;2024-01-11T11:14:24;34.20;;;16.20;;
3141;SDS011;1581;51.568;6.998;2024-01-11T11:16:51;34.23;;;16.47;;
3141;SDS011;1581;51.568;6.998;2024-01-11T11:19:19;40.00;;;17.27;;
3141;SDS011;1581;51.568;6.998;2024-01-11T11:21:49;32.43;;;16.77;;
3141;SDS011;1581;51.568;6.998;2024-01-11T11:24:16;32.00;;;15.63;;
3141;SDS011;1581;51.568;6.998;2024-01-11T11:26:44;29.97;;;15.37;;
3141;SDS011;1581;51.568;6.998;2024-01-11T11:29:12;36.27;;;15.30;;
3141;SDS011;1581;51.568;6.998;2024-01-11T11:31:41;29.60;;;15.47;;
3141;SDS011;1581;51.568;6.998;2024-01-11T11:34:12;29.00;;;14.67;;
3141;SDS011;1581;51.568;6.998;2024-01-11T11:36:41;35.23;;;14.97;;
3141;SDS011;1581;51.568;6.998;2024-01-11T11:39:13;33.87;;;15.43;;
3141;SDS011;1581;51.568;6.998;2024-01-11T11:41:41;32.50;;;14.83;;
3141;SDS011;1581;51.568;6.998;2024-01-11T11:44:11;27.43;;;14.73;;
3141;SDS011;1581;51.568;6.998;2024-01-11T11:46:39;30.80;;;15.23;;
3141;SDS011;1581;51.568;6.998;2024-01-11T11:49:07;29.93;;;14.97;;
3141;SDS011;1581;51.568;6.998;2024-01-11T11:51:35;31.00;;;15.27;;
3141;SDS011;1581;51.568;6.998;2024-01-11T11:54:07;29.37;;;14.17;;
3141;SDS011;1581;51.568;6.998;2024-01-11T11:56:37;28.60;;;15.37;;
3141;SDS011;1581;51.568;6.998;2024-01-11T11:59:05;28.77;;;15.67;;
3141;SDS011;1581;51.568;6.998;2024-01-11T12:01:34;33.23;;;15.47;;
3141;SDS011;1581;51.568;6.998;2024-01-11T12:04:03;31.80;;;15.47;;
3141;SDS011;1581;51.568;6.998;2024-01-11T12:06:31;33.80;;;15.10;;
3141;SDS011;1581;51.568;6.998;2024-01-11T12:08:58;33.80;;;16.40;;
3141;SDS011;1581;51.568;6.998;2024-01-11T12:11:26;31.93;;;13.83;;
3141;SDS011;1581;51.568;6.998;2024-01-11T12:13:55;27.03;;;13.43;;
3141;SDS011;1581;51.568;6.998;2024-01-11T12:16:23;35.43;;;13.13;;
3141;SDS011;1581;51.568;6.998;2024-01-11T12:18:51;29.80;;;13.27;;
3141;SDS011;1581;51.568;6.998;2024-01-11T12:21:19;31.27;;;13.30;;
3141;SDS011;1581;51.568;6.998;2024-01-11T12:23:46;26.40;;;13.67;;
3141;SDS011;1581;51.568;6.998;2024-01-11T12:26:14;28.43;;;14.03;;
3141;SDS011;1581;51.568;6.998;2024-01-11T12:28:47;32.13;;;13.67;;
3141;SDS011;1581;51.568;6.998;2024-01-11T12:31:16;21.93;;;12.47;;
3141;SDS011;1581;51.568;6.998;2024-01-11T12:33:44;23.90;;;13.13;;
3141;SDS011;1581;51.568;6.998;2024-01-11T12:36:13;33.10;;;14.40;;
3141;SDS011;1581;51.568;6.998;2024-01-11T12:38:46;25.87;;;13.70;;
3141;SDS011;1581;51.568;6.998;2024-01-11T12:41:14;26.47;;;14.77;;
3141;SDS011;1581;51.568;6.998;2024-01-11T12:43:42;35.27;;;15.73;;
3141;SDS011;1581;51.568;6.998;2024-01-11T12:46:09;33.57;;;13.23;;
3141;SDS011;1581;51.568;6.998;2024-01-11T12:48:39;24.87;;;12.90;;
3141;SDS011;1581;51.568;6.998;2024-01-11T12:51:06;27.03;;;13.33;;
3141;SDS011;1581;51.568;6.998;2024-01-11T12:53:33;27.37;;;12.47;;
3141;SDS011;1581;51.568;6.998;2024-01-11T12:56:03;26.27;;;13.07;;
3141;SDS011;1581;51.568;6.998;2024-01-11T12:58:34;38.83;;;12.83;;
3141;SDS011;1581;51.568;6.998;2024-01-11T13:01:01;27.27;;;11.10;;
3141;SDS011;1581;51.568;6.998;2024-01-11T13:03:29;21.93;;;11.30;;
3141;SDS011;1581;51.568;6.998;2024-01-11T13:05:58;28.83;;;11.70;;
3141;SDS011;1581;51.568;6.998;2024-01-11T13:08:26;28.50;;;11.70;;
3141;SDS011;1581;51.568;6.998;2024-01-11T13:10:54;27.80;;;11.07;;
3141;SDS011;1581;51.568;6.998;2024-01-11T13:13:21;19.53;;;10.20;;
3141;SDS011;1581;51.568;6.998;2024-01-11T13:15:49;23.70;;;10.80;;
3141;SDS011;1581;51.568;6.998;2024-01-11T13:18:17;21.30;;;11.20;;
3141;SDS011;1581;51.568;6.998;2024-01-11T13:20:44;25.27;;;10.90;;
3141;SDS011;1581;51.568;6.998;2024-01-11T13:23:14;20.90;;;10.70;;
3141;SDS011;1581;51.568;6.998;2024-01-11T13:25:45;36.50;;;17.30;;
3141;SDS011;1581;51.568;6.998;2024-01-11T13:28:13;32.63;;;15.43;;
3141;SDS011;1581;51.568;6.998;2024-01-11T13:30:41;30.20;;;13.77;;
3141;SDS011;1581;51.568;6.998;2024-01-11T13:33:10;21.47;;;11.03;;
3141;SDS011;1581;51.568;6.998;2024-01-11T13:35:39;27.83;;;14.10;;
3141;SDS011;1581;51.568;6.998;2024-01-11T13:38:08;23.60;;;11.90;;
3141;SDS011;1581;51.568;6.998;2024-01-11T13:40:37;21.63;;;12.50;;
3141;SDS011;1581;51.568;6.998;2024-01-11T13:43:05;36.47;;;12.93;;
3141;SDS011;1581;51.568;6.998;2024-01-11T13:45:32;26.40;;;12.47;;
3141;SDS011;1581;51.568;6.998;2024-01-11T13:48:01;27.00;;;12.70;;
3141;SDS011;1581;51.568;6.998;2024-01-11T13:50:29;24.70;;;11.90;;
3141;SDS011;1581;51.568;6.998;2024-01-11T13:52:57;24.80;;;11.57;;
3141;SDS011;1581;51.568;6.998;2024-01-11T13:55:25;26.33;;;12.23;;
3141;SDS011;1581;51.568;6.998;2024-01-11T13:57:56;29.50;;;13.23;;
3141;SDS011;1581;51.568;6.998;2024-01-11T14:00:23;24.50;;;11.70;;
3141;SDS011;1581;51.568;6.998;2024-01-11T14:02:51;24.13;;;10.50;;
3141;SDS011;1581;51.568;6.998;2024-01-11T14:05:18;21.03;;;11.10;;
3141;SDS011;1581;51.568;6.998;2024-01-11T14:07:46;22.07;;;11.70;;
3141;SDS011;1581;51.568;6.998;2024-01-11T14:10:19;19.70;;;10.97;;
3141;SDS011;1581;51.568;6.998;2024-01-11T14:12:47;21.50;;;10.30;;
3141;SDS011;1581;51.568;6.998;2024-01-11T14:15:16;22.80;;;11.00;;
3141;SDS011;1581;51.568;6.998;2024-01-11T14:17:43;21.53;;;10.60;;
3141;SDS011;1581;51.568;6.998;2024-01-11T14:20:11;22.27;;;9.97;;
3141;SDS011;1581;51.568;6.998;2024-01-11T14:22:39;21.17;;;10.67;;
3141;SDS011;1581;51.568;6.998;2024-01-11T14:25:12;22.77;;;11.30;;
3141;SDS011;1581;51.568;6.998;2024-01-11T14:27:39;20.13;;;11.03;;
3141;SDS011;1581;51.568;6.998;2024-01-11T14:30:07;19.07;;;9.20;;
3141;SDS011;1581;51.568;6.998;2024-01-11T14:32:37;18.83;;;9.63;;
3141;SDS011;1581;51.568;6.998;2024-01-11T14:35:06;27.10;;;9.73;;
3141;SDS011;1581;51.568;6.998;2024-01-11T14:37:36;18.00;;;8.57;;
3141;SDS011;1581;51.568;6.998;2024-01-11T14:40:05;14.17;;;7.47;;
3141;SDS011;1581;51.568;6.998;2024-01-11T14:42:35;17.60;;;9.00;;
3141;SDS011;1581;51.568;6.998;2024-01-11T14:45:03;18.30;;;7.17;;
3141;SDS011;1581;51.568;6.998;2024-01-11T14:47:32;12.70;;;6.30;;
3141;SDS011;1581;51.568;6.998;2024-01-11T14:50:01;11.23;;;5.30;;
3141;SDS011;1581;51.568;6.998;2024-01-11T14:52:29;11.90;;;5.93;;
3141;SDS011;1581;51.568;6.998;2024-01-11T14:54:57;7.77;;;4.47;;
3141;SDS011;1581;51.568;6.998;2024-01-11T14:57:24;5.50;;;3.70;;
3141;SDS011;1581;51.568;6.998;2024-01-11T14:59:52;6.57;;;3.90;;